createdAt,value
2022-10-13T16:34:38.596Z,15.50
2022-10-13T17:39:56.516Z,14.50
2022-10-13T17:42:23.321Z,15.10
2022-10-13T17:44:50.061Z,15.10
2022-10-13T17:47:16.750Z,15.10
2022-10-13T17:49:44.940Z,15.10
2022-10-13T17:52:11.636Z,15.10
2022-10-13T17:54:38.371Z,15.10
2022-10-13T17:57:05.467Z,15.00
2022-10-13T17:59:32.466Z,15.10
2022-10-13T18:01:59.157Z,15.10
2022-10-13T18:04:28.754Z,15.10
2022-10-13T18:06:55.643Z,15.10
2022-10-13T18:09:24.513Z,15.10
2022-10-13T18:11:53.690Z,15.10
2022-10-13T18:14:22.345Z,15.10
2022-10-13T18:16:52.910Z,15.00
2022-10-13T18:19:21.141Z,14.90
2022-10-13T18:21:48.710Z,14.90
2022-10-13T18:24:15.832Z,14.80
2022-10-13T18:26:42.777Z,14.80
2022-10-13T18:29:11.517Z,14.70
2022-10-13T18:31:40.319Z,14.70
2022-10-13T18:34:10.796Z,14.70
2022-10-13T18:36:40.228Z,14.70
2022-10-13T18:39:15.413Z,14.70
2022-10-13T18:41:42.280Z,14.70
2022-10-13T18:44:11.037Z,14.70
2022-10-13T18:46:38.595Z,14.60
2022-10-13T18:49:07.232Z,14.60
2022-10-13T18:51:36.567Z,14.60
2022-10-13T18:54:04.170Z,14.60
2022-10-13T18:56:32.193Z,14.50
2022-10-13T18:59:01.919Z,14.50
2022-10-13T19:01:32.351Z,14.50
2022-10-13T19:04:00.093Z,14.50
2022-10-13T19:06:28.706Z,14.50
2022-10-13T19:09:07.748Z,14.50
2022-10-13T19:11:35.541Z,14.40
2022-10-13T19:14:04.133Z,14.40
2022-10-13T19:16:33.265Z,14.40
2022-10-13T19:19:01.791Z,14.40
2022-10-13T19:21:28.606Z,14.40
2022-10-13T19:23:59.543Z,14.50
2022-10-13T19:26:29.762Z,14.50
2022-10-13T19:29:04.149Z,14.60
2022-10-13T19:31:33.109Z,14.60
2022-10-13T19:34:00.753Z,14.50
2022-10-13T19:36:34.447Z,14.60
2022-10-13T19:39:04.044Z,14.50
2022-10-13T19:41:32.792Z,14.50
2022-10-13T19:44:00.493Z,14.50
2022-10-13T19:46:27.460Z,14.50
2022-10-13T19:48:54.809Z,14.50
2022-10-13T19:51:21.867Z,14.50
2022-10-13T19:53:48.623Z,14.50
2022-10-13T19:56:34.519Z,14.40
2022-10-13T19:59:04.459Z,14.50
2022-10-13T20:01:32.364Z,14.50
2022-10-13T20:03:59.112Z,14.50
2022-10-13T20:06:26.399Z,14.50
2022-10-13T20:08:53.169Z,14.50
2022-10-13T20:11:24.427Z,14.50
2022-10-13T20:13:53.521Z,14.50
2022-10-13T20:16:23.356Z,14.50
2022-10-13T20:18:55.218Z,14.50
2022-10-13T20:21:23.100Z,14.60
2022-10-13T20:23:49.939Z,14.70
2022-10-13T20:26:17.563Z,14.70
2022-10-13T20:28:46.257Z,14.80
2022-10-13T20:31:15.584Z,14.80
2022-10-13T20:33:42.799Z,14.70
2022-10-13T20:36:12.721Z,14.70
2022-10-13T20:38:39.926Z,14.70
2022-10-13T20:41:15.096Z,14.70
2022-10-13T20:43:41.955Z,14.70
2022-10-13T20:46:09.439Z,14.60
2022-10-13T20:49:05.186Z,14.60
2022-10-13T20:51:26.251Z,14.60
2022-10-13T20:53:53.249Z,14.60
2022-10-13T20:56:24.899Z,14.70
2022-10-13T20:58:55.063Z,14.70
2022-10-13T21:01:23.759Z,14.70
2022-10-13T21:03:55.089Z,14.70
2022-10-13T21:06:23.700Z,14.60
2022-10-13T21:08:53.897Z,14.60
2022-10-13T21:11:22.368Z,14.60
2022-10-13T21:13:50.128Z,14.60
2022-10-13T21:16:23.244Z,14.60
2022-10-13T21:18:52.022Z,14.60
2022-10-13T21:21:28.064Z,14.60
2022-10-13T21:24:04.800Z,14.60
2022-10-13T21:26:32.564Z,14.60
2022-10-13T21:29:00.563Z,14.40
2022-10-13T21:31:28.903Z,14.40
2022-10-13T21:33:56.303Z,14.40
2022-10-13T21:36:29.303Z,14.30
2022-10-13T21:39:06.143Z,14.30
2022-10-13T21:41:33.596Z,14.30
2022-10-13T21:44:01.042Z,14.30
2022-10-13T21:46:33.426Z,14.20
2022-10-13T21:49:02.618Z,14.30
2022-10-13T21:51:36.195Z,14.30
2022-10-13T21:54:10.080Z,14.30
2022-10-13T21:56:38.008Z,14.30
2022-10-13T21:59:06.075Z,14.20
2022-10-13T22:01:35.504Z,14.20
2022-10-13T22:04:02.715Z,14.20
2022-10-13T22:06:32.230Z,14.20
2022-10-13T22:09:01.164Z,14.20
2022-10-13T22:11:31.772Z,14.20
2022-10-13T22:13:59.553Z,14.10
2022-10-13T22:16:36.882Z,14.10
2022-10-13T22:19:03.744Z,14.10
2022-10-13T22:21:35.787Z,14.10
2022-10-13T22:24:05.620Z,14.10
2022-10-13T22:26:38.997Z,14.20
2022-10-13T22:29:07.218Z,14.20
2022-10-13T22:31:34.574Z,14.20
2022-10-13T22:34:12.993Z,14.20
2022-10-13T22:36:44.849Z,14.10
2022-10-13T22:39:12.377Z,14.10
2022-10-13T22:41:39.221Z,14.10
